sensor_id;sensor_type;location;lat;lon;timestamp;P1;durP1;ratioP1;P2;durP2;ratioP2
72205;SDS011;60111;48.286;7.812;2022-11-15T00:01:18;6.07;;;2.70;;
72205;SDS011;60111;48.286;7.812;2022-11-15T00:03:52;4.90;;;2.42;;
72205;SDS011;60111;48.286;7.812;2022-11-15T00:06:25;3.70;;;2.50;;
72205;SDS011;60111;48.286;7.812;2022-11-15T00:08:58;4.67;;;2.60;;
72205;SDS011;60111;48.286;7.812;2022-11-15T00:11:31;5.90;;;2.33;;
72205;SDS011;60111;48.286;7.812;2022-11-15T00:14:03;8.08;;;2.58;;
72205;SDS011;60111;48.286;7.812;2022-11-15T00:16:36;2.83;;;2.10;;
72205;SDS011;60111;48.286;7.812;2022-11-15T00:19:09;3.63;;;2.30;;
72205;SDS011;60111;48.286;7.812;2022-11-15T00:21:41;4.87;;;2.40;;
72205;SDS011;60111;48.286;7.812;2022-11-15T00:24:14;6.72;;;2.10;;
72205;SDS011;60111;48.286;7.812;2022-11-15T00:26:46;3.12;;;2.30;;
72205;SDS011;60111;48.286;7.812;2022-11-15T00:29:19;4.42;;;2.45;;
72205;SDS011;60111;48.286;7.812;2022-11-15T00:31:52;5.17;;;2.50;;
72205;SDS011;60111;48.286;7.812;2022-11-15T00:34:24;8.35;;;2.30;;
72205;SDS011;60111;48.286;7.812;2022-11-15T00:37:00;2.92;;;2.22;;
72205;SDS011;60111;48.286;7.812;2022-11-15T00:39:32;5.92;;;2.70;;
72205;SDS011;60111;48.286;7.812;2022-11-15T00:42:05;3.90;;;2.52;;
72205;SDS011;60111;48.286;7.812;2022-11-15T00:44:37;8.73;;;2.37;;
72205;SDS011;60111;48.286;7.812;2022-11-15T00:47:10;2.95;;;2.12;;
72205;SDS011;60111;48.286;7.812;2022-11-15T00:49:42;7.72;;;2.62;;
72205;SDS011;60111;48.286;7.812;2022-11-15T00:52:15;3.35;;;2.33;;
72205;SDS011;60111;48.286;7.812;2022-11-15T00:54:48;6.12;;;2.10;;
72205;SDS011;60111;48.286;7.812;2022-11-15T00:57:20;4.83;;;2.52;;
72205;SDS011;60111;48.286;7.812;2022-11-15T00:59:58;4.67;;;2.22;;
72205;SDS011;60111;48.286;7.812;2022-11-15T01:02:27;4.50;;;2.80;;
72205;SDS011;60111;48.286;7.812;2022-11-15T01:04:59;5.12;;;2.60;;
72205;SDS011;60111;48.286;7.812;2022-11-15T01:07:32;4.03;;;2.33;;
72205;SDS011;60111;48.286;7.812;2022-11-15T01:10:05;5.13;;;2.40;;
72205;SDS011;60111;48.286;7.812;2022-11-15T01:12:38;4.47;;;2.37;;
72205;SDS011;60111;48.286;7.812;2022-11-15T01:15:11;3.03;;;2.40;;
72205;SDS011;60111;48.286;7.812;2022-11-15T01:17:43;4.47;;;2.70;;
72205;SDS011;60111;48.286;7.812;2022-11-15T01:20:16;3.83;;;2.60;;
72205;SDS011;60111;48.286;7.812;2022-11-15T01:22:49;3.35;;;2.30;;
72205;SDS011;60111;48.286;7.812;2022-11-15T01:25:23;2.85;;;2.08;;
72205;SDS011;60111;48.286;7.812;2022-11-15T01:27:55;6.60;;;2.40;;
72205;SDS011;60111;48.286;7.812;2022-11-15T01:30:28;3.23;;;2.57;;
72205;SDS011;60111;48.286;7.812;2022-11-15T01:33:00;3.33;;;2.22;;
72205;SDS011;60111;48.286;7.812;2022-11-15T01:35:33;3.92;;;2.20;;
72205;SDS011;60111;48.286;7.812;2022-11-15T01:38:09;7.10;;;2.72;;
72205;SDS011;60111;48.286;7.812;2022-11-15T01:40:41;3.40;;;2.50;;
72205;SDS011;60111;48.286;7.812;2022-11-15T01:43:49;3.70;;;2.30;;
72205;SDS011;60111;48.286;7.812;2022-11-15T01:46:04;2.58;;;2.35;;
72205;SDS011;60111;48.286;7.812;2022-11-15T01:48:37;6.05;;;2.62;;
72205;SDS011;60111;48.286;7.812;2022-11-15T01:51:10;3.90;;;2.42;;
72205;SDS011;60111;48.286;7.812;2022-11-15T01:53:47;3.87;;;2.42;;
72205;SDS011;60111;48.286;7.812;2022-11-15T01:56:23;3.87;;;2.75;;
72205;SDS011;60111;48.286;7.812;2022-11-15T01:58:58;5.85;;;2.80;;
72205;SDS011;60111;48.286;7.812;2022-11-15T02:01:33;5.83;;;2.80;;
72205;SDS011;60111;48.286;7.812;2022-11-15T02:06:48;5.10;;;3.30;;
72205;SDS011;60111;48.286;7.812;2022-11-15T02:09:21;3.45;;;3.08;;
72205;SDS011;60111;48.286;7.812;2022-11-15T02:11:54;4.60;;;2.80;;
72205;SDS011;60111;48.286;7.812;2022-11-15T02:14:28;5.10;;;3.40;;
72205;SDS011;60111;48.286;7.812;2022-11-15T02:25:36;4.50;;;3.45;;
72205;SDS011;60111;48.286;7.812;2022-11-15T02:33:56;5.90;;;3.65;;
72205;SDS011;60111;48.286;7.812;2022-11-15T02:36:31;4.30;;;2.87;;
72205;SDS011;60111;48.286;7.812;2022-11-15T02:39:26;5.67;;;3.35;;
72205;SDS011;60111;48.286;7.812;2022-11-15T02:42:02;4.17;;;3.10;;
72205;SDS011;60111;48.286;7.812;2022-11-15T02:44:42;5.87;;;3.67;;
72205;SDS011;60111;48.286;7.812;2022-11-15T02:47:15;3.80;;;3.12;;
72205;SDS011;60111;48.286;7.812;2022-11-15T02:49:54;7.07;;;3.10;;
72205;SDS011;60111;48.286;7.812;2022-11-15T02:52:24;4.50;;;3.22;;
72205;SDS011;60111;48.286;7.812;2022-11-15T02:54:58;4.92;;;3.30;;
72205;SDS011;60111;48.286;7.812;2022-11-15T02:58:39;3.50;;;3.10;;
72205;SDS011;60111;48.286;7.812;2022-11-15T03:00:17;3.92;;;2.95;;
72205;SDS011;60111;48.286;7.812;2022-11-15T03:02:56;4.22;;;2.87;;
72205;SDS011;60111;48.286;7.812;2022-11-15T03:05:44;6.70;;;3.30;;
72205;SDS011;60111;48.286;7.812;2022-11-15T03:11:13;6.08;;;3.45;;
72205;SDS011;60111;48.286;7.812;2022-11-15T03:19:22;4.20;;;2.72;;
72205;SDS011;60111;48.286;7.812;2022-11-15T03:21:58;5.00;;;3.40;;
72205;SDS011;60111;48.286;7.812;2022-11-15T03:24:34;4.55;;;3.12;;
72205;SDS011;60111;48.286;7.812;2022-11-15T03:27:09;4.33;;;3.40;;
72205;SDS011;60111;48.286;7.812;2022-11-15T03:29:46;4.62;;;3.17;;
72205;SDS011;60111;48.286;7.812;2022-11-15T03:32:22;5.17;;;3.70;;
72205;SDS011;60111;48.286;7.812;2022-11-15T03:35:04;5.90;;;3.50;;
72205;SDS011;60111;48.286;7.812;2022-11-15T03:37:42;5.87;;;3.60;;
72205;SDS011;60111;48.286;7.812;2022-11-15T03:40:21;3.60;;;3.08;;
72205;SDS011;60111;48.286;7.812;2022-11-15T03:42:58;6.75;;;3.85;;
72205;SDS011;60111;48.286;7.812;2022-11-15T03:45:35;5.25;;;3.52;;
72205;SDS011;60111;48.286;7.812;2022-11-15T03:48:18;5.83;;;3.33;;
72205;SDS011;60111;48.286;7.812;2022-11-15T03:50:53;6.03;;;3.10;;
72205;SDS011;60111;48.286;7.812;2022-11-15T03:53:27;4.20;;;3.00;;
72205;SDS011;60111;48.286;7.812;2022-11-15T03:56:01;4.40;;;2.43;;
72205;SDS011;60111;48.286;7.812;2022-11-15T03:58:34;4.60;;;2.40;;
72205;SDS011;60111;48.286;7.812;2022-11-15T04:01:06;4.10;;;2.55;;
72205;SDS011;60111;48.286;7.812;2022-11-15T04:03:39;3.17;;;2.25;;
72205;SDS011;60111;48.286;7.812;2022-11-15T04:06:13;5.87;;;2.65;;
72205;SDS011;60111;48.286;7.812;2022-11-15T04:08:46;4.55;;;2.52;;
72205;SDS011;60111;48.286;7.812;2022-11-15T04:11:18;4.70;;;2.25;;
72205;SDS011;60111;48.286;7.812;2022-11-15T04:13:51;3.80;;;2.37;;
72205;SDS011;60111;48.286;7.812;2022-11-15T04:16:24;6.40;;;2.30;;
72205;SDS011;60111;48.286;7.812;2022-11-15T04:18:56;3.22;;;2.27;;
72205;SDS011;60111;48.286;7.812;2022-11-15T04:21:47;10.00;;;2.55;;
72205;SDS011;60111;48.286;7.812;2022-11-15T04:24:38;4.67;;;2.60;;
72205;SDS011;60111;48.286;7.812;2022-11-15T04:27:10;3.63;;;2.50;;
72205;SDS011;60111;48.286;7.812;2022-11-15T04:29:44;3.62;;;2.42;;
72205;SDS011;60111;48.286;7.812;2022-11-15T04:32:16;4.28;;;2.42;;
72205;SDS011;60111;48.286;7.812;2022-11-15T04:34:49;5.92;;;2.65;;
72205;SDS011;60111;48.286;7.812;2022-11-15T04:37:21;8.95;;;2.30;;
72205;SDS011;60111;48.286;7.812;2022-11-15T04:39:54;2.62;;;2.30;;
72205;SDS011;60111;48.286;7.812;2022-11-15T04:42:26;3.05;;;2.20;;
72205;SDS011;60111;48.286;7.812;2022-11-15T04:44:59;4.83;;;2.60;;
72205;SDS011;60111;48.286;7.812;2022-11-15T04:47:32;2.67;;;2.20;;
72205;SDS011;60111;48.286;7.812;2022-11-15T04:50:04;3.27;;;1.97;;
72205;SDS011;60111;48.286;7.812;2022-11-15T04:52:38;5.83;;;2.33;;
72205;SDS011;60111;48.286;7.812;2022-11-15T04:55:11;3.00;;;2.03;;
72205;SDS011;60111;48.286;7.812;2022-11-15T04:57:45;4.25;;;2.22;;
72205;SDS011;60111;48.286;7.812;2022-11-15T05:00:17;6.40;;;2.22;;
72205;SDS011;60111;48.286;7.812;2022-11-15T05:02:50;6.67;;;2.05;;
72205;SDS011;60111;48.286;7.812;2022-11-15T05:05:41;4.42;;;2.20;;
72205;SDS011;60111;48.286;7.812;2022-11-15T05:08:14;5.40;;;2.40;;
72205;SDS011;60111;48.286;7.812;2022-11-15T05:10:47;3.42;;;2.20;;
72205;SDS011;60111;48.286;7.812;2022-11-15T05:13:19;3.85;;;2.12;;
72205;SDS011;60111;48.286;7.812;2022-11-15T05:15:53;3.75;;;2.55;;
72205;SDS011;60111;48.286;7.812;2022-11-15T05:18:26;6.00;;;3.12;;
72205;SDS011;60111;48.286;7.812;2022-11-15T05:21:05;4.17;;;2.67;;
72205;SDS011;60111;48.286;7.812;2022-11-15T05:23:40;3.75;;;2.47;;
72205;SDS011;60111;48.286;7.812;2022-11-15T05:26:13;5.23;;;2.20;;
72205;SDS011;60111;48.286;7.812;2022-11-15T05:28:51;5.03;;;2.20;;
72205;SDS011;60111;48.286;7.812;2022-11-15T05:31:26;4.75;;;2.67;;
72205;SDS011;60111;48.286;7.812;2022-11-15T05:33:59;3.25;;;2.65;;
72205;SDS011;60111;48.286;7.812;2022-11-15T05:36:36;7.30;;;2.55;;
72205;SDS011;60111;48.286;7.812;2022-11-15T05:39:10;3.17;;;2.70;;
72205;SDS011;60111;48.286;7.812;2022-11-15T05:41:48;4.37;;;2.90;;
72205;SDS011;60111;48.286;7.812;2022-11-15T05:44:19;6.28;;;3.08;;
72205;SDS011;60111;48.286;7.812;2022-11-15T05:46:54;5.30;;;3.05;;
72205;SDS011;60111;48.286;7.812;2022-11-15T05:50:03;4.80;;;2.80;;
72205;SDS011;60111;48.286;7.812;2022-11-15T05:52:37;4.50;;;3.10;;
72205;SDS011;60111;48.286;7.812;2022-11-15T05:55:10;5.97;;;3.08;;
72205;SDS011;60111;48.286;7.812;2022-11-15T05:57:43;6.45;;;3.20;;
72205;SDS011;60111;48.286;7.812;2022-11-15T06:00:16;5.33;;;3.33;;
72205;SDS011;60111;48.286;7.812;2022-11-15T06:02:49;6.28;;;2.60;;
72205;SDS011;60111;48.286;7.812;2022-11-15T06:05:22;7.65;;;2.95;;
72205;SDS011;60111;48.286;7.812;2022-11-15T06:07:58;5.37;;;2.67;;
72205;SDS011;60111;48.286;7.812;2022-11-15T06:10:30;5.27;;;2.63;;
72205;SDS011;60111;48.286;7.812;2022-11-15T06:13:04;4.37;;;2.42;;
72205;SDS011;60111;48.286;7.812;2022-11-15T06:15:37;4.47;;;2.52;;
72205;SDS011;60111;48.286;7.812;2022-11-15T06:18:09;3.15;;;2.10;;
72205;SDS011;60111;48.286;7.812;2022-11-15T06:20:42;4.72;;;2.45;;
72205;SDS011;60111;48.286;7.812;2022-11-15T06:23:14;4.42;;;2.65;;
72205;SDS011;60111;48.286;7.812;2022-11-15T06:25:47;2.95;;;2.17;;
72205;SDS011;60111;48.286;7.812;2022-11-15T06:28:19;3.50;;;2.20;;
72205;SDS011;60111;48.286;7.812;2022-11-15T06:30:52;3.25;;;2.05;;
72205;SDS011;60111;48.286;7.812;2022-11-15T06:33:25;3.85;;;2.05;;
72205;SDS011;60111;48.286;7.812;2022-11-15T06:36:04;4.40;;;2.35;;
72205;SDS011;60111;48.286;7.812;2022-11-15T06:38:38;4.53;;;2.22;;
72205;SDS011;60111;48.286;7.812;2022-11-15T06:41:11;4.05;;;2.40;;
72205;SDS011;60111;48.286;7.812;2022-11-15T06:43:44;7.13;;;3.40;;
72205;SDS011;60111;48.286;7.812;2022-11-15T06:46:17;3.72;;;2.60;;
72205;SDS011;60111;48.286;7.812;2022-11-15T06:48:50;2.90;;;2.50;;
72205;SDS011;60111;48.286;7.812;2022-11-15T06:51:23;3.43;;;2.20;;
72205;SDS011;60111;48.286;7.812;2022-11-15T06:53:56;3.20;;;2.50;;
72205;SDS011;60111;48.286;7.812;2022-11-15T06:56:29;5.58;;;2.50;;
72205;SDS011;60111;48.286;7.812;2022-11-15T06:59:01;6.10;;;2.58;;
72205;SDS011;60111;48.286;7.812;2022-11-15T07:01:34;3.45;;;2.50;;
72205;SDS011;60111;48.286;7.812;2022-11-15T07:04:06;3.47;;;2.53;;
72205;SDS011;60111;48.286;7.812;2022-11-15T07:06:39;4.85;;;2.50;;
72205;SDS011;60111;48.286;7.812;2022-11-15T07:09:12;5.58;;;2.60;;
72205;SDS011;60111;48.286;7.812;2022-11-15T07:11:44;5.33;;;2.58;;
72205;SDS011;60111;48.286;7.812;2022-11-15T07:14:17;4.92;;;2.60;;
72205;SDS011;60111;48.286;7.812;2022-11-15T07:16:49;4.10;;;2.42;;
72205;SDS011;60111;48.286;7.812;2022-11-15T07:19:22;5.80;;;2.85;;
72205;SDS011;60111;48.286;7.812;2022-11-15T07:21:55;3.95;;;2.40;;
72205;SDS011;60111;48.286;7.812;2022-11-15T07:24:27;3.60;;;2.60;;
72205;SDS011;60111;48.286;7.812;2022-11-15T07:27:00;3.65;;;2.30;;
72205;SDS011;60111;48.286;7.812;2022-11-15T07:29:32;3.55;;;2.55;;
72205;SDS011;60111;48.286;7.812;2022-11-15T07:32:05;3.40;;;2.50;;
72205;SDS011;60111;48.286;7.812;2022-11-15T07:34:37;2.50;;;2.20;;
72205;SDS011;60111;48.286;7.812;2022-11-15T07:37:10;4.10;;;2.87;;
72205;SDS011;60111;48.286;7.812;2022-11-15T07:39:43;4.93;;;2.60;;
72205;SDS011;60111;48.286;7.812;2022-11-15T07:48:52;3.30;;;2.40;;
72205;SDS011;60111;48.286;7.812;2022-11-15T07:51:24;3.58;;;2.70;;
72205;SDS011;60111;48.286;7.812;2022-11-15T07:53:57;6.05;;;3.15;;
72205;SDS011;60111;48.286;7.812;2022-11-15T07:56:30;7.85;;;2.83;;
72205;SDS011;60111;48.286;7.812;2022-11-15T07:59:02;2.20;;;2.00;;
72205;SDS011;60111;48.286;7.812;2022-11-15T08:01:35;3.87;;;2.20;;
72205;SDS011;60111;48.286;7.812;2022-11-15T08:04:07;4.15;;;2.45;;
72205;SDS011;60111;48.286;7.812;2022-11-15T08:06:42;2.83;;;2.27;;
72205;SDS011;60111;48.286;7.812;2022-11-15T08:09:14;4.25;;;2.25;;
72205;SDS011;60111;48.286;7.812;2022-11-15T08:11:47;4.87;;;2.50;;
72205;SDS011;60111;48.286;7.812;2022-11-15T08:14:20;3.50;;;2.30;;
72205;SDS011;60111;48.286;7.812;2022-11-15T08:16:56;4.62;;;2.00;;
72205;SDS011;60111;48.286;7.812;2022-11-15T08:19:29;6.17;;;2.72;;
72205;SDS011;60111;48.286;7.812;2022-11-15T08:22:01;3.65;;;2.40;;
72205;SDS011;60111;48.286;7.812;2022-11-15T08:24:34;3.58;;;2.05;;
72205;SDS011;60111;48.286;7.812;2022-11-15T08:27:07;3.70;;;2.27;;
72205;SDS011;60111;48.286;7.812;2022-11-15T08:29:48;7.62;;;2.77;;
72205;SDS011;60111;48.286;7.812;2022-11-15T08:32:21;2.72;;;1.98;;
72205;SDS011;60111;48.286;7.812;2022-11-15T08:34:55;3.50;;;2.30;;
72205;SDS011;60111;48.286;7.812;2022-11-15T08:37:27;5.30;;;3.75;;
72205;SDS011;60111;48.286;7.812;2022-11-15T08:40:00;4.22;;;2.55;;
72205;SDS011;60111;48.286;7.812;2022-11-15T08:42:33;3.35;;;2.55;;
72205;SDS011;60111;48.286;7.812;2022-11-15T08:45:06;4.37;;;3.22;;
72205;SDS011;60111;48.286;7.812;2022-11-15T08:47:39;3.77;;;3.10;;
72205;SDS011;60111;48.286;7.812;2022-11-15T08:50:11;5.58;;;3.42;;
72205;SDS011;60111;48.286;7.812;2022-11-15T08:52:44;5.05;;;2.98;;
72205;SDS011;60111;48.286;7.812;2022-11-15T08:55:18;3.00;;;2.70;;
72205;SDS011;60111;48.286;7.812;2022-11-15T08:57:51;5.22;;;3.52;;
72205;SDS011;60111;48.286;7.812;2022-11-15T09:00:24;4.83;;;2.67;;
72205;SDS011;60111;48.286;7.812;2022-11-15T09:02:56;5.78;;;3.05;;
72205;SDS011;60111;48.286;7.812;2022-11-15T09:05:30;9.23;;;3.90;;
72205;SDS011;60111;48.286;7.812;2022-11-15T09:08:02;6.70;;;3.90;;
72205;SDS011;60111;48.286;7.812;2022-11-15T09:10:36;8.93;;;3.50;;
72205;SDS011;60111;48.286;7.812;2022-11-15T09:13:08;7.97;;;3.67;;
72205;SDS011;60111;48.286;7.812;2022-11-15T09:15:41;6.70;;;3.55;;
72205;SDS011;60111;48.286;7.812;2022-11-15T09:18:16;10.60;;;5.08;;
72205;SDS011;60111;48.286;7.812;2022-11-15T09:20:48;7.35;;;5.25;;
72205;SDS011;60111;48.286;7.812;2022-11-15T09:23:21;8.75;;;6.08;;
72205;SDS011;60111;48.286;7.812;2022-11-15T09:25:58;6.50;;;4.12;;
72205;SDS011;60111;48.286;7.812;2022-11-15T09:28:32;4.45;;;3.50;;
72205;SDS011;60111;48.286;7.812;2022-11-15T09:31:05;5.77;;;3.90;;
72205;SDS011;60111;48.286;7.812;2022-11-15T09:33:38;5.20;;;3.42;;
72205;SDS011;60111;48.286;7.812;2022-11-15T09:36:11;5.95;;;3.42;;
72205;SDS011;60111;48.286;7.812;2022-11-15T09:38:44;4.07;;;3.00;;
72205;SDS011;60111;48.286;7.812;2022-11-15T09:47:00;6.47;;;2.90;;
72205;SDS011;60111;48.286;7.812;2022-11-15T09:49:31;3.20;;;2.52;;
72205;SDS011;60111;48.286;7.812;2022-11-15T09:52:04;5.00;;;2.80;;
72205;SDS011;60111;48.286;7.812;2022-11-15T09:54:39;4.35;;;2.60;;
72205;SDS011;60111;48.286;7.812;2022-11-15T09:57:14;3.37;;;2.52;;
72205;SDS011;60111;48.286;7.812;2022-11-15T09:59:58;3.00;;;2.45;;
72205;SDS011;60111;48.286;7.812;2022-11-15T10:02:50;6.73;;;2.70;;
72205;SDS011;60111;48.286;7.812;2022-11-15T10:05:25;3.80;;;2.83;;
72205;SDS011;60111;48.286;7.812;2022-11-15T10:08:12;4.83;;;3.00;;
72205;SDS011;60111;48.286;7.812;2022-11-15T10:10:43;7.08;;;3.98;;
72205;SDS011;60111;48.286;7.812;2022-11-15T10:13:44;7.75;;;4.00;;
72205;SDS011;60111;48.286;7.812;2022-11-15T10:16:33;8.00;;;4.05;;
72205;SDS011;60111;48.286;7.812;2022-11-15T10:25:08;4.67;;;2.90;;
72205;SDS011;60111;48.286;7.812;2022-11-15T10:27:43;6.20;;;2.80;;
72205;SDS011;60111;48.286;7.812;2022-11-15T10:30:18;4.28;;;3.00;;
72205;SDS011;60111;48.286;7.812;2022-11-15T10:32:51;4.28;;;2.60;;
72205;SDS011;60111;48.286;7.812;2022-11-15T10:35:28;4.25;;;2.50;;
72205;SDS011;60111;48.286;7.812;2022-11-15T10:38:05;4.08;;;2.30;;
72205;SDS011;60111;48.286;7.812;2022-11-15T10:40:40;3.40;;;2.08;;
72205;SDS011;60111;48.286;7.812;2022-11-15T10:43:18;3.37;;;2.00;;
72205;SDS011;60111;48.286;7.812;2022-11-15T10:45:51;2.50;;;2.02;;
72205;SDS011;60111;48.286;7.812;2022-11-15T10:48:24;2.65;;;1.98;;
72205;SDS011;60111;48.286;7.812;2022-11-15T10:50:57;4.15;;;2.20;;
72205;SDS011;60111;48.286;7.812;2022-11-15T10:53:31;4.22;;;2.33;;
72205;SDS011;60111;48.286;7.812;2022-11-15T10:56:11;3.65;;;2.45;;
72205;SDS011;60111;48.286;7.812;2022-11-15T10:59:12;4.42;;;2.62;;
72205;SDS011;60111;48.286;7.812;2022-11-15T11:01:27;3.35;;;2.20;;
72205;SDS011;60111;48.286;7.812;2022-11-15T11:04:01;3.17;;;2.20;;
72205;SDS011;60111;48.286;7.812;2022-11-15T11:06:49;3.02;;;2.17;;
72205;SDS011;60111;48.286;7.812;2022-11-15T11:09:33;2.70;;;1.90;;
72205;SDS011;60111;48.286;7.812;2022-11-15T11:12:12;2.77;;;1.90;;
72205;SDS011;60111;48.286;7.812;2022-11-15T11:14:43;2.65;;;1.77;;
72205;SDS011;60111;48.286;7.812;2022-11-15T11:26:06;2.47;;;1.90;;
72205;SDS011;60111;48.286;7.812;2022-11-15T11:28:53;4.90;;;2.17;;
72205;SDS011;60111;48.286;7.812;2022-11-15T11:37:17;4.42;;;3.30;;
72205;SDS011;60111;48.286;7.812;2022-11-15T11:39:59;5.08;;;3.20;;
72205;SDS011;60111;48.286;7.812;2022-11-15T11:51:49;6.42;;;3.05;;
72205;SDS011;60111;48.286;7.812;2022-11-15T12:00:12;3.98;;;2.90;;
72205;SDS011;60111;48.286;7.812;2022-11-15T12:08:30;5.95;;;2.90;;
72205;SDS011;60111;48.286;7.812;2022-11-15T12:11:17;5.15;;;3.22;;
72205;SDS011;60111;48.286;7.812;2022-11-15T12:14:01;4.53;;;3.33;;
72205;SDS011;60111;48.286;7.812;2022-11-15T12:16:42;4.63;;;3.53;;
72205;SDS011;60111;48.286;7.812;2022-11-15T12:19:10;7.62;;;3.08;;
72205;SDS011;60111;48.286;7.812;2022-11-15T12:24:42;6.28;;;5.00;;
72205;SDS011;60111;48.286;7.812;2022-11-15T12:27:45;7.30;;;3.90;;
72205;SDS011;60111;48.286;7.812;2022-11-15T12:30:43;4.37;;;3.20;;
72205;SDS011;60111;48.286;7.812;2022-11-15T12:33:36;4.17;;;3.00;;
72205;SDS011;60111;48.286;7.812;2022-11-15T12:36:11;5.90;;;3.25;;
72205;SDS011;60111;48.286;7.812;2022-11-15T12:38:56;5.53;;;4.53;;
72205;SDS011;60111;48.286;7.812;2022-11-15T12:41:43;6.62;;;4.00;;
72205;SDS011;60111;48.286;7.812;2022-11-15T12:49:44;7.55;;;4.70;;
72205;SDS011;60111;48.286;7.812;2022-11-15T12:52:17;7.07;;;4.37;;
72205;SDS011;60111;48.286;7.812;2022-11-15T12:54:52;5.57;;;4.03;;
72205;SDS011;60111;48.286;7.812;2022-11-15T12:57:28;7.65;;;4.40;;
72205;SDS011;60111;48.286;7.812;2022-11-15T13:00:45;8.50;;;5.53;;
72205;SDS011;60111;48.286;7.812;2022-11-15T13:02:46;6.73;;;4.60;;
72205;SDS011;60111;48.286;7.812;2022-11-15T13:08:32;6.83;;;4.62;;
72205;SDS011;60111;48.286;7.812;2022-11-15T13:10:48;5.45;;;4.17;;
72205;SDS011;60111;48.286;7.812;2022-11-15T13:16:02;7.17;;;4.17;;
72205;SDS011;60111;48.286;7.812;2022-11-15T13:18:37;4.70;;;4.20;;
72205;SDS011;60111;48.286;7.812;2022-11-15T13:21:22;6.80;;;4.75;;
72205;SDS011;60111;48.286;7.812;2022-11-15T13:24:12;11.05;;;5.28;;
72205;SDS011;60111;48.286;7.812;2022-11-15T13:26:45;9.63;;;4.28;;
72205;SDS011;60111;48.286;7.812;2022-11-15T13:29:18;7.40;;;4.10;;
72205;SDS011;60111;48.286;7.812;2022-11-15T13:31:52;10.20;;;4.00;;
72205;SDS011;60111;48.286;7.812;2022-11-15T13:34:28;8.43;;;4.22;;
72205;SDS011;60111;48.286;7.812;2022-11-15T13:37:03;12.33;;;3.60;;
72205;SDS011;60111;48.286;7.812;2022-11-15T13:39:37;6.37;;;3.35;;
72205;SDS011;60111;48.286;7.812;2022-11-15T13:42:14;5.75;;;2.87;;
72205;SDS011;60111;48.286;7.812;2022-11-15T13:44:57;5.77;;;3.10;;
72205;SDS011;60111;48.286;7.812;2022-11-15T13:47:31;3.73;;;2.93;;
72205;SDS011;60111;48.286;7.812;2022-11-15T13:50:04;4.30;;;2.95;;
72205;SDS011;60111;48.286;7.812;2022-11-15T13:52:38;6.28;;;2.95;;
72205;SDS011;60111;48.286;7.812;2022-11-15T13:55:19;5.47;;;3.10;;
72205;SDS011;60111;48.286;7.812;2022-11-15T13:57:59;5.40;;;3.00;;
72205;SDS011;60111;48.286;7.812;2022-11-15T14:00:40;5.40;;;3.35;;
72205;SDS011;60111;48.286;7.812;2022-11-15T14:03:24;3.98;;;2.87;;
72205;SDS011;60111;48.286;7.812;2022-11-15T14:06:09;4.97;;;3.20;;
72205;SDS011;60111;48.286;7.812;2022-11-15T14:11:51;7.08;;;4.20;;
72205;SDS011;60111;48.286;7.812;2022-11-15T14:14:25;4.92;;;3.70;;
72205;SDS011;60111;48.286;7.812;2022-11-15T14:17:00;8.60;;;5.35;;
72205;SDS011;60111;48.286;7.812;2022-11-15T14:19:34;5.87;;;4.73;;
72205;SDS011;60111;48.286;7.812;2022-11-15T14:22:22;6.60;;;4.97;;
72205;SDS011;60111;48.286;7.812;2022-11-15T14:25:16;10.82;;;5.28;;
72205;SDS011;60111;48.286;7.812;2022-11-15T14:30:46;13.18;;;5.85;;
72205;SDS011;60111;48.286;7.812;2022-11-15T14:33:21;10.20;;;7.00;;
72205;SDS011;60111;48.286;7.812;2022-11-15T14:36:34;13.65;;;6.22;;
72205;SDS011;60111;48.286;7.812;2022-11-15T14:38:44;11.05;;;6.17;;
72205;SDS011;60111;48.286;7.812;2022-11-15T14:41:18;14.03;;;8.85;;
72205;SDS011;60111;48.286;7.812;2022-11-15T14:43:52;10.00;;;7.12;;
72205;SDS011;60111;48.286;7.812;2022-11-15T14:46:25;10.03;;;7.47;;
72205;SDS011;60111;48.286;7.812;2022-11-15T14:48:58;11.77;;;7.40;;
72205;SDS011;60111;48.286;7.812;2022-11-15T14:51:30;10.85;;;7.42;;
72205;SDS011;60111;48.286;7.812;2022-11-15T14:54:04;14.07;;;10.27;;
72205;SDS011;60111;48.286;7.812;2022-11-15T14:56:36;11.60;;;8.60;;
72205;SDS011;60111;48.286;7.812;2022-11-15T14:59:09;11.63;;;7.58;;
72205;SDS011;60111;48.286;7.812;2022-11-15T15:01:41;14.37;;;7.13;;
72205;SDS011;60111;48.286;7.812;2022-11-15T15:04:14;10.63;;;6.42;;
72205;SDS011;60111;48.286;7.812;2022-11-15T15:06:47;11.48;;;6.33;;
72205;SDS011;60111;48.286;7.812;2022-11-15T15:09:19;9.10;;;5.75;;
72205;SDS011;60111;48.286;7.812;2022-11-15T15:11:52;8.40;;;5.80;;
72205;SDS011;60111;48.286;7.812;2022-11-15T15:14:25;9.45;;;6.10;;
72205;SDS011;60111;48.286;7.812;2022-11-15T15:16:58;8.83;;;6.15;;
72205;SDS011;60111;48.286;7.812;2022-11-15T15:19:30;9.20;;;5.42;;
72205;SDS011;60111;48.286;7.812;2022-11-15T15:22:03;8.65;;;5.92;;
72205;SDS011;60111;48.286;7.812;2022-11-15T15:24:36;10.03;;;5.97;;
72205;SDS011;60111;48.286;7.812;2022-11-15T15:27:11;7.80;;;4.93;;
72205;SDS011;60111;48.286;7.812;2022-11-15T15:32:15;9.35;;;5.17;;
72205;SDS011;60111;48.286;7.812;2022-11-15T15:34:47;7.13;;;4.77;;
72205;SDS011;60111;48.286;7.812;2022-11-15T15:39:56;6.87;;;4.97;;
72205;SDS011;60111;48.286;7.812;2022-11-15T15:42:29;6.17;;;4.85;;
72205;SDS011;60111;48.286;7.812;2022-11-15T15:45:02;7.03;;;5.00;;
72205;SDS011;60111;48.286;7.812;2022-11-15T15:47:35;8.15;;;5.28;;
72205;SDS011;60111;48.286;7.812;2022-11-15T15:50:32;5.87;;;4.50;;
72205;SDS011;60111;48.286;7.812;2022-11-15T15:52:57;9.08;;;5.92;;
72205;SDS011;60111;48.286;7.812;2022-11-15T15:55:31;9.78;;;6.58;;
72205;SDS011;60111;48.286;7.812;2022-11-15T15:58:04;8.73;;;6.53;;
72205;SDS011;60111;48.286;7.812;2022-11-15T16:00:38;9.23;;;6.17;;
72205;SDS011;60111;48.286;7.812;2022-11-15T16:03:12;9.43;;;6.17;;
72205;SDS011;60111;48.286;7.812;2022-11-15T16:05:45;7.58;;;4.97;;
72205;SDS011;60111;48.286;7.812;2022-11-15T16:08:23;9.08;;;6.05;;
72205;SDS011;60111;48.286;7.812;2022-11-15T16:10:57;12.23;;;5.72;;
72205;SDS011;60111;48.286;7.812;2022-11-15T16:13:29;12.37;;;5.67;;
72205;SDS011;60111;48.286;7.812;2022-11-15T16:16:02;10.85;;;5.40;;
72205;SDS011;60111;48.286;7.812;2022-11-15T16:18:36;7.25;;;5.50;;
72205;SDS011;60111;48.286;7.812;2022-11-15T16:21:09;10.00;;;7.08;;
72205;SDS011;60111;48.286;7.812;2022-11-15T16:26:20;17.85;;;11.63;;
72205;SDS011;60111;48.286;7.812;2022-11-15T16:28:53;21.30;;;14.20;;
72205;SDS011;60111;48.286;7.812;2022-11-15T16:31:26;18.00;;;12.40;;
72205;SDS011;60111;48.286;7.812;2022-11-15T16:33:58;20.80;;;13.50;;
72205;SDS011;60111;48.286;7.812;2022-11-15T16:36:32;15.68;;;11.97;;
72205;SDS011;60111;48.286;7.812;2022-11-15T16:39:06;18.57;;;12.03;;
72205;SDS011;60111;48.286;7.812;2022-11-15T16:44:14;21.50;;;14.93;;
72205;SDS011;60111;48.286;7.812;2022-11-15T16:46:47;18.00;;;13.65;;
72205;SDS011;60111;48.286;7.812;2022-11-15T16:49:21;20.77;;;13.88;;
72205;SDS011;60111;48.286;7.812;2022-11-15T16:51:55;17.95;;;12.82;;
72205;SDS011;60111;48.286;7.812;2022-11-15T16:54:27;16.52;;;12.43;;
72205;SDS011;60111;48.286;7.812;2022-11-15T16:57:00;15.20;;;10.93;;
72205;SDS011;60111;48.286;7.812;2022-11-15T16:59:32;14.78;;;10.90;;
72205;SDS011;60111;48.286;7.812;2022-11-15T17:02:09;17.62;;;12.03;;
72205;SDS011;60111;48.286;7.812;2022-11-15T17:04:41;17.67;;;12.65;;
72205;SDS011;60111;48.286;7.812;2022-11-15T17:07:13;14.43;;;11.22;;
72205;SDS011;60111;48.286;7.812;2022-11-15T17:09:46;16.17;;;10.13;;
72205;SDS011;60111;48.286;7.812;2022-11-15T17:12:18;11.88;;;9.35;;
72205;SDS011;60111;48.286;7.812;2022-11-15T17:14:51;15.60;;;10.60;;
72205;SDS011;60111;48.286;7.812;2022-11-15T17:17:23;17.57;;;10.70;;
72205;SDS011;60111;48.286;7.812;2022-11-15T17:19:56;13.08;;;10.15;;
72205;SDS011;60111;48.286;7.812;2022-11-15T17:22:29;13.87;;;9.90;;